Terminal Aerodrome Forecast
Issued by NWS

Home | Current Version | Previous Version | Text Only | Print | Product List | Glossary Off
Versions: 1 2 3 4 5 6 7 8 9 10 11 12 13 14 15 16 17

000
FTUS43 KIWX 261723
TAFSBN
TAF
KSBN 261723Z 2618/2718 16005KT P6SM BKN250
     FM262300 08007KT P6SM VCTS BKN060CB
     FM270400 03004KT 6SM -SHRA BKN015
     FM271200 03005KT P6SM BKN015
     FM271400 35005KT P6SM BKN035=

USA.gov is the U.S. government's official web portal to all federal, state and local government web resources and services.